sensor_id;sensor_type;location;lat;lon;timestamp;temperature;humidity
12152;DHT22;6139;51.274;7.128;2023-07-31T00:00:54;15.60;99.90
12152;DHT22;6139;51.274;7.128;2023-07-31T00:01:56;15.60;99.90
12152;DHT22;6139;51.274;7.128;2023-07-31T00:02:57;15.50;99.90
12152;DHT22;6139;51.274;7.128;2023-07-31T00:03:59;15.50;99.90
12152;DHT22;6139;51.274;7.128;2023-07-31T00:05:00;15.50;99.90
12152;DHT22;6139;51.274;7.128;2023-07-31T00:06:04;15.50;99.90
12152;DHT22;6139;51.274;7.128;2023-07-31T00:07:05;15.60;99.90
12152;DHT22;6139;51.274;7.128;2023-07-31T00:08:07;15.60;99.90
12152;DHT22;6139;51.274;7.128;2023-07-31T00:09:08;15.50;99.90
12152;DHT22;6139;51.274;7.128;2023-07-31T00:10:10;15.50;99.90
12152;DHT22;6139;51.274;7.128;2023-07-31T00:11:11;15.50;99.90
12152;DHT22;6139;51.274;7.128;2023-07-31T00:12:12;15.50;99.90
12152;DHT22;6139;51.274;7.128;2023-07-31T00:13:14;15.50;99.90
12152;DHT22;6139;51.274;7.128;2023-07-31T00:14:15;15.50;99.90
12152;DHT22;6139;51.274;7.128;2023-07-31T00:15:17;15.50;99.90
12152;DHT22;6139;51.274;7.128;2023-07-31T00:16:18;15.50;99.90
12152;DHT22;6139;51.274;7.128;2023-07-31T00:17:19;15.50;99.90
12152;DHT22;6139;51.274;7.128;2023-07-31T00:18:21;15.60;99.90
12152;DHT22;6139;51.274;7.128;2023-07-31T00:19:22;15.60;99.90
12152;DHT22;6139;51.274;7.128;2023-07-31T00:20:24;15.60;99.90
12152;DHT22;6139;51.274;7.128;2023-07-31T00:21:26;15.60;99.90
12152;DHT22;6139;51.274;7.128;2023-07-31T00:22:28;15.60;99.90
12152;DHT22;6139;51.274;7.128;2023-07-31T00:23:29;15.60;99.90
12152;DHT22;6139;51.274;7.128;2023-07-31T00:24:31;15.60;99.90
12152;DHT22;6139;51.274;7.128;2023-07-31T00:25:32;15.60;99.90
12152;DHT22;6139;51.274;7.128;2023-07-31T00:26:33;15.50;99.90
12152;DHT22;6139;51.274;7.128;2023-07-31T00:27:35;15.60;99.90
12152;DHT22;6139;51.274;7.128;2023-07-31T00:28:36;15.50;99.90
12152;DHT22;6139;51.274;7.128;2023-07-31T00:29:38;15.50;99.90
12152;DHT22;6139;51.274;7.128;2023-07-31T00:30:39;15.50;99.90
12152;DHT22;6139;51.274;7.128;2023-07-31T00:31:41;15.50;99.90
12152;DHT22;6139;51.274;7.128;2023-07-31T00:32:42;15.50;99.90
12152;DHT22;6139;51.274;7.128;2023-07-31T00:33:44;15.60;99.90
12152;DHT22;6139;51.274;7.128;2023-07-31T00:34:45;15.50;99.90
12152;DHT22;6139;51.274;7.128;2023-07-31T00:35:48;15.50;99.90
12152;DHT22;6139;51.274;7.128;2023-07-31T00:36:51;15.50;99.90
12152;DHT22;6139;51.274;7.128;2023-07-31T00:37:53;15.60;99.90
12152;DHT22;6139;51.274;7.128;2023-07-31T00:38:54;15.50;99.90
12152;DHT22;6139;51.274;7.128;2023-07-31T00:39:56;15.50;99.90
12152;DHT22;6139;51.274;7.128;2023-07-31T00:40:57;15.50;99.90
12152;DHT22;6139;51.274;7.128;2023-07-31T00:41:59;15.50;99.90
12152;DHT22;6139;51.274;7.128;2023-07-31T00:42:59;15.60;99.90
12152;DHT22;6139;51.274;7.128;2023-07-31T00:44:01;15.60;99.90
12152;DHT22;6139;51.274;7.128;2023-07-31T00:45:03;15.60;99.90
12152;DHT22;6139;51.274;7.128;2023-07-31T00:46:05;15.50;99.90
12152;DHT22;6139;51.274;7.128;2023-07-31T00:47:07;15.50;99.90
12152;DHT22;6139;51.274;7.128;2023-07-31T00:48:09;15.50;99.90
12152;DHT22;6139;51.274;7.128;2023-07-31T00:49:11;15.50;99.90
12152;DHT22;6139;51.274;7.128;2023-07-31T00:50:14;15.50;99.90
12152;DHT22;6139;51.274;7.128;2023-07-31T00:51:15;15.40;99.90
12152;DHT22;6139;51.274;7.128;2023-07-31T00:52:19;15.50;99.90
12152;DHT22;6139;51.274;7.128;2023-07-31T00:53:20;15.50;99.90
12152;DHT22;6139;51.274;7.128;2023-07-31T00:54:24;15.50;99.90
12152;DHT22;6139;51.274;7.128;2023-07-31T00:55:25;15.50;99.90
12152;DHT22;6139;51.274;7.128;2023-07-31T00:56:28;15.50;99.90
12152;DHT22;6139;51.274;7.128;2023-07-31T00:57:31;15.50;99.90
12152;DHT22;6139;51.274;7.128;2023-07-31T00:58:33;15.50;99.90
12152;DHT22;6139;51.274;7.128;2023-07-31T00:59:34;15.50;99.90
12152;DHT22;6139;51.274;7.128;2023-07-31T01:00:37;15.50;99.90
12152;DHT22;6139;51.274;7.128;2023-07-31T01:01:38;15.50;99.90
12152;DHT22;6139;51.274;7.128;2023-07-31T01:02:40;15.50;99.90
12152;DHT22;6139;51.274;7.128;2023-07-31T01:03:41;15.50;99.90
12152;DHT22;6139;51.274;7.128;2023-07-31T01:04:45;15.50;99.90
12152;DHT22;6139;51.274;7.128;2023-07-31T01:05:57;15.50;99.90
12152;DHT22;6139;51.274;7.128;2023-07-31T01:07:10;15.50;99.90
12152;DHT22;6139;51.274;7.128;2023-07-31T01:08:21;15.50;99.90
12152;DHT22;6139;51.274;7.128;2023-07-31T01:09:31;15.50;99.90
12152;DHT22;6139;51.274;7.128;2023-07-31T01:10:40;15.50;99.90
12152;DHT22;6139;51.274;7.128;2023-07-31T01:11:48;15.50;99.90
12152;DHT22;6139;51.274;7.128;2023-07-31T01:12:50;15.50;99.90
12152;DHT22;6139;51.274;7.128;2023-07-31T01:13:53;15.50;99.90
12152;DHT22;6139;51.274;7.128;2023-07-31T01:15:03;15.50;99.90
12152;DHT22;6139;51.274;7.128;2023-07-31T01:16:05;15.50;99.90
12152;DHT22;6139;51.274;7.128;2023-07-31T01:17:06;15.50;99.90
12152;DHT22;6139;51.274;7.128;2023-07-31T01:18:08;15.50;99.90
12152;DHT22;6139;51.274;7.128;2023-07-31T01:19:11;15.50;99.90
12152;DHT22;6139;51.274;7.128;2023-07-31T01:20:18;15.50;99.90
12152;DHT22;6139;51.274;7.128;2023-07-31T01:21:35;15.50;99.90
12152;DHT22;6139;51.274;7.128;2023-07-31T01:23:22;15.50;99.90
12152;DHT22;6139;51.274;7.128;2023-07-31T01:24:32;15.50;99.90
12152;DHT22;6139;51.274;7.128;2023-07-31T01:25:57;15.50;99.90
12152;DHT22;6139;51.274;7.128;2023-07-31T01:27:15;15.50;99.90
12152;DHT22;6139;51.274;7.128;2023-07-31T01:28:23;15.60;99.90
12152;DHT22;6139;51.274;7.128;2023-07-31T01:29:32;15.50;99.90
12152;DHT22;6139;51.274;7.128;2023-07-31T01:30:41;15.50;99.90
12152;DHT22;6139;51.274;7.128;2023-07-31T01:31:47;15.50;99.90
12152;DHT22;6139;51.274;7.128;2023-07-31T01:32:51;15.50;99.90
12152;DHT22;6139;51.274;7.128;2023-07-31T01:34:01;15.50;99.90
12152;DHT22;6139;51.274;7.128;2023-07-31T01:35:04;15.50;99.90
12152;DHT22;6139;51.274;7.128;2023-07-31T01:36:05;15.50;99.90
12152;DHT22;6139;51.274;7.128;2023-07-31T01:37:07;15.50;99.90
12152;DHT22;6139;51.274;7.128;2023-07-31T01:38:09;15.50;99.90
12152;DHT22;6139;51.274;7.128;2023-07-31T01:39:11;15.50;99.90
12152;DHT22;6139;51.274;7.128;2023-07-31T01:40:12;15.50;99.90
12152;DHT22;6139;51.274;7.128;2023-07-31T01:41:16;15.50;99.90
12152;DHT22;6139;51.274;7.128;2023-07-31T01:42:17;15.50;99.90
12152;DHT22;6139;51.274;7.128;2023-07-31T01:43:20;15.50;99.90
12152;DHT22;6139;51.274;7.128;2023-07-31T01:44:21;15.50;99.90
12152;DHT22;6139;51.274;7.128;2023-07-31T01:45:23;15.50;99.90
12152;DHT22;6139;51.274;7.128;2023-07-31T01:46:24;15.50;99.90
12152;DHT22;6139;51.274;7.128;2023-07-31T01:47:25;15.50;99.90
12152;DHT22;6139;51.274;7.128;2023-07-31T01:48:27;15.50;99.90
12152;DHT22;6139;51.274;7.128;2023-07-31T01:49:28;15.50;99.90
12152;DHT22;6139;51.274;7.128;2023-07-31T01:50:30;15.50;99.90
12152;DHT22;6139;51.274;7.128;2023-07-31T01:51:31;15.50;99.90
12152;DHT22;6139;51.274;7.128;2023-07-31T01:52:34;15.50;99.90
12152;DHT22;6139;51.274;7.128;2023-07-31T01:53:35;15.50;99.90
12152;DHT22;6139;51.274;7.128;2023-07-31T01:54:37;15.50;99.90
12152;DHT22;6139;51.274;7.128;2023-07-31T01:55:38;15.50;99.90
12152;DHT22;6139;51.274;7.128;2023-07-31T01:56:43;15.50;99.90
12152;DHT22;6139;51.274;7.128;2023-07-31T01:57:43;15.50;99.90
12152;DHT22;6139;51.274;7.128;2023-07-31T01:58:45;15.40;99.90
12152;DHT22;6139;51.274;7.128;2023-07-31T01:59:46;15.40;99.90
12152;DHT22;6139;51.274;7.128;2023-07-31T02:00:48;15.40;99.90
12152;DHT22;6139;51.274;7.128;2023-07-31T02:01:49;15.40;99.90
12152;DHT22;6139;51.274;7.128;2023-07-31T02:02:51;15.40;99.90
12152;DHT22;6139;51.274;7.128;2023-07-31T02:03:54;15.40;99.90
12152;DHT22;6139;51.274;7.128;2023-07-31T02:04:57;15.50;99.90
12152;DHT22;6139;51.274;7.128;2023-07-31T02:05:58;15.50;99.90
12152;DHT22;6139;51.274;7.128;2023-07-31T02:07:00;15.40;99.90
12152;DHT22;6139;51.274;7.128;2023-07-31T02:08:02;15.50;99.90
12152;DHT22;6139;51.274;7.128;2023-07-31T02:09:03;15.40;99.90
12152;DHT22;6139;51.274;7.128;2023-07-31T02:10:07;15.40;99.90
12152;DHT22;6139;51.274;7.128;2023-07-31T02:11:10;15.40;99.90
12152;DHT22;6139;51.274;7.128;2023-07-31T02:12:13;15.40;99.90
12152;DHT22;6139;51.274;7.128;2023-07-31T02:13:15;15.40;99.90
12152;DHT22;6139;51.274;7.128;2023-07-31T02:14:16;15.40;99.90
12152;DHT22;6139;51.274;7.128;2023-07-31T02:15:17;15.40;99.90
12152;DHT22;6139;51.274;7.128;2023-07-31T02:16:20;15.40;99.90
12152;DHT22;6139;51.274;7.128;2023-07-31T02:17:21;15.40;99.90
12152;DHT22;6139;51.274;7.128;2023-07-31T02:18:23;15.40;99.90
12152;DHT22;6139;51.274;7.128;2023-07-31T02:19:24;15.40;99.90
12152;DHT22;6139;51.274;7.128;2023-07-31T02:20:26;15.40;99.90
12152;DHT22;6139;51.274;7.128;2023-07-31T02:21:27;15.40;99.90
12152;DHT22;6139;51.274;7.128;2023-07-31T02:22:28;15.40;99.90
12152;DHT22;6139;51.274;7.128;2023-07-31T02:23:31;15.50;99.90
12152;DHT22;6139;51.274;7.128;2023-07-31T02:24:32;15.50;99.90
12152;DHT22;6139;51.274;7.128;2023-07-31T02:25:33;15.50;99.90
12152;DHT22;6139;51.274;7.128;2023-07-31T02:26:35;15.40;99.90
12152;DHT22;6139;51.274;7.128;2023-07-31T02:27:39;15.40;99.90
12152;DHT22;6139;51.274;7.128;2023-07-31T02:28:41;15.40;99.90
12152;DHT22;6139;51.274;7.128;2023-07-31T02:29:43;15.40;99.90
12152;DHT22;6139;51.274;7.128;2023-07-31T02:30:47;15.40;99.90
12152;DHT22;6139;51.274;7.128;2023-07-31T02:31:48;15.40;99.90
12152;DHT22;6139;51.274;7.128;2023-07-31T02:32:50;15.40;99.90
12152;DHT22;6139;51.274;7.128;2023-07-31T02:33:51;15.40;99.90
12152;DHT22;6139;51.274;7.128;2023-07-31T02:34:53;15.40;99.90
12152;DHT22;6139;51.274;7.128;2023-07-31T02:35:54;15.40;99.90
12152;DHT22;6139;51.274;7.128;2023-07-31T02:36:56;15.40;99.90
12152;DHT22;6139;51.274;7.128;2023-07-31T02:37:58;15.40;99.90
12152;DHT22;6139;51.274;7.128;2023-07-31T02:39:00;15.40;99.90
12152;DHT22;6139;51.274;7.128;2023-07-31T02:40:01;15.40;99.90
12152;DHT22;6139;51.274;7.128;2023-07-31T02:41:05;15.40;99.90
12152;DHT22;6139;51.274;7.128;2023-07-31T02:42:06;15.40;99.90
12152;DHT22;6139;51.274;7.128;2023-07-31T02:43:09;15.50;99.90
12152;DHT22;6139;51.274;7.128;2023-07-31T02:44:11;15.50;99.90
12152;DHT22;6139;51.274;7.128;2023-07-31T02:45:15;15.50;99.90
12152;DHT22;6139;51.274;7.128;2023-07-31T02:46:16;15.40;99.90
12152;DHT22;6139;51.274;7.128;2023-07-31T02:47:18;15.50;99.90
12152;DHT22;6139;51.274;7.128;2023-07-31T02:48:19;15.40;99.90
12152;DHT22;6139;51.274;7.128;2023-07-31T02:49:21;15.40;99.90
12152;DHT22;6139;51.274;7.128;2023-07-31T02:50:22;15.40;99.90
12152;DHT22;6139;51.274;7.128;2023-07-31T02:51:24;15.50;99.90
12152;DHT22;6139;51.274;7.128;2023-07-31T02:52:25;15.50;99.90
12152;DHT22;6139;51.274;7.128;2023-07-31T02:53:27;15.40;99.90
12152;DHT22;6139;51.274;7.128;2023-07-31T02:54:28;15.50;99.90
12152;DHT22;6139;51.274;7.128;2023-07-31T02:55:30;15.40;99.90
12152;DHT22;6139;51.274;7.128;2023-07-31T02:56:32;15.40;99.90
12152;DHT22;6139;51.274;7.128;2023-07-31T02:57:34;15.50;99.90
12152;DHT22;6139;51.274;7.128;2023-07-31T02:58:36;15.40;99.90
12152;DHT22;6139;51.274;7.128;2023-07-31T02:59:38;15.50;99.90
12152;DHT22;6139;51.274;7.128;2023-07-31T03:00:42;15.50;99.90
12152;DHT22;6139;51.274;7.128;2023-07-31T03:01:44;15.50;99.90
12152;DHT22;6139;51.274;7.128;2023-07-31T03:02:45;15.50;99.90
12152;DHT22;6139;51.274;7.128;2023-07-31T03:03:47;15.40;99.90
12152;DHT22;6139;51.274;7.128;2023-07-31T03:04:48;15.50;99.90
12152;DHT22;6139;51.274;7.128;2023-07-31T03:05:50;15.50;99.90
12152;DHT22;6139;51.274;7.128;2023-07-31T03:06:51;15.50;99.90
12152;DHT22;6139;51.274;7.128;2023-07-31T03:07:52;15.50;99.90
12152;DHT22;6139;51.274;7.128;2023-07-31T03:08:54;15.40;99.90
12152;DHT22;6139;51.274;7.128;2023-07-31T03:09:55;15.50;99.90
12152;DHT22;6139;51.274;7.128;2023-07-31T03:10:57;15.50;99.90
12152;DHT22;6139;51.274;7.128;2023-07-31T03:11:58;15.50;99.90
12152;DHT22;6139;51.274;7.128;2023-07-31T03:13:01;15.50;99.90
12152;DHT22;6139;51.274;7.128;2023-07-31T03:14:03;15.50;99.90
12152;DHT22;6139;51.274;7.128;2023-07-31T03:15:06;15.50;99.90
12152;DHT22;6139;51.274;7.128;2023-07-31T03:16:07;15.50;99.90
12152;DHT22;6139;51.274;7.128;2023-07-31T03:17:08;15.50;99.90
12152;DHT22;6139;51.274;7.128;2023-07-31T03:18:10;15.60;99.90
12152;DHT22;6139;51.274;7.128;2023-07-31T03:19:11;15.60;99.90
12152;DHT22;6139;51.274;7.128;2023-07-31T03:20:13;15.60;99.90
12152;DHT22;6139;51.274;7.128;2023-07-31T03:21:14;15.60;99.90
12152;DHT22;6139;51.274;7.128;2023-07-31T03:22:16;15.60;99.90
12152;DHT22;6139;51.274;7.128;2023-07-31T03:23:17;15.60;99.90
12152;DHT22;6139;51.274;7.128;2023-07-31T03:24:19;15.60;99.90
12152;DHT22;6139;51.274;7.128;2023-07-31T03:25:20;15.60;99.90
12152;DHT22;6139;51.274;7.128;2023-07-31T03:26:22;15.60;99.90
12152;DHT22;6139;51.274;7.128;2023-07-31T03:27:23;15.60;99.90
12152;DHT22;6139;51.274;7.128;2023-07-31T03:28:25;15.60;99.90
12152;DHT22;6139;51.274;7.128;2023-07-31T03:29:27;15.60;99.90
12152;DHT22;6139;51.274;7.128;2023-07-31T03:30:29;15.60;99.90
12152;DHT22;6139;51.274;7.128;2023-07-31T03:31:30;15.60;99.90
12152;DHT22;6139;51.274;7.128;2023-07-31T03:32:32;15.60;99.90
12152;DHT22;6139;51.274;7.128;2023-07-31T03:33:33;15.60;99.90
12152;DHT22;6139;51.274;7.128;2023-07-31T03:34:35;15.60;99.90
12152;DHT22;6139;51.274;7.128;2023-07-31T03:35:36;15.60;99.90
12152;DHT22;6139;51.274;7.128;2023-07-31T03:36:37;15.60;99.90
12152;DHT22;6139;51.274;7.128;2023-07-31T03:37:39;15.60;99.90
12152;DHT22;6139;51.274;7.128;2023-07-31T03:38:41;15.60;99.90
12152;DHT22;6139;51.274;7.128;2023-07-31T03:39:43;15.60;99.90
12152;DHT22;6139;51.274;7.128;2023-07-31T03:40:44;15.60;99.90
12152;DHT22;6139;51.274;7.128;2023-07-31T03:41:46;15.60;99.90
12152;DHT22;6139;51.274;7.128;2023-07-31T03:42:47;15.60;99.90
12152;DHT22;6139;51.274;7.128;2023-07-31T03:43:50;15.60;99.90
12152;DHT22;6139;51.274;7.128;2023-07-31T03:44:54;15.60;99.90
12152;DHT22;6139;51.274;7.128;2023-07-31T03:45:56;15.60;99.90
12152;DHT22;6139;51.274;7.128;2023-07-31T03:46:59;15.60;99.90
12152;DHT22;6139;51.274;7.128;2023-07-31T03:48:01;15.60;99.90
12152;DHT22;6139;51.274;7.128;2023-07-31T03:49:02;15.60;99.90
12152;DHT22;6139;51.274;7.128;2023-07-31T03:50:06;15.60;99.90
12152;DHT22;6139;51.274;7.128;2023-07-31T03:51:07;15.60;99.90
12152;DHT22;6139;51.274;7.128;2023-07-31T03:52:09;15.60;99.90
12152;DHT22;6139;51.274;7.128;2023-07-31T03:53:10;15.70;99.90
12152;DHT22;6139;51.274;7.128;2023-07-31T03:54:12;15.60;99.90
12152;DHT22;6139;51.274;7.128;2023-07-31T03:55:14;15.70;99.90
12152;DHT22;6139;51.274;7.128;2023-07-31T03:56:16;15.70;99.90
12152;DHT22;6139;51.274;7.128;2023-07-31T03:57:17;15.70;99.90
12152;DHT22;6139;51.274;7.128;2023-07-31T03:58:19;15.70;99.90
12152;DHT22;6139;51.274;7.128;2023-07-31T03:59:20;15.70;99.90
12152;DHT22;6139;51.274;7.128;2023-07-31T04:00:22;15.70;99.90
12152;DHT22;6139;51.274;7.128;2023-07-31T04:01:24;15.70;99.90
12152;DHT22;6139;51.274;7.128;2023-07-31T04:02:25;15.70;99.90
12152;DHT22;6139;51.274;7.128;2023-07-31T04:03:27;15.70;99.90
12152;DHT22;6139;51.274;7.128;2023-07-31T04:04:28;15.70;99.90
12152;DHT22;6139;51.274;7.128;2023-07-31T04:05:31;15.70;99.90
12152;DHT22;6139;51.274;7.128;2023-07-31T04:06:33;15.70;99.90
12152;DHT22;6139;51.274;7.128;2023-07-31T04:07:34;15.70;99.90
12152;DHT22;6139;51.274;7.128;2023-07-31T04:08:35;15.70;99.90
12152;DHT22;6139;51.274;7.128;2023-07-31T04:09:37;15.70;99.90
12152;DHT22;6139;51.274;7.128;2023-07-31T04:10:38;15.70;99.90
12152;DHT22;6139;51.274;7.128;2023-07-31T04:11:40;15.70;99.90
12152;DHT22;6139;51.274;7.128;2023-07-31T04:12:41;15.70;99.90
12152;DHT22;6139;51.274;7.128;2023-07-31T04:13:43;15.70;99.90
12152;DHT22;6139;51.274;7.128;2023-07-31T04:14:44;15.70;99.90
12152;DHT22;6139;51.274;7.128;2023-07-31T04:15:49;15.70;99.90
12152;DHT22;6139;51.274;7.128;2023-07-31T04:16:51;15.70;99.90
12152;DHT22;6139;51.274;7.128;2023-07-31T04:17:53;15.70;99.90
12152;DHT22;6139;51.274;7.128;2023-07-31T04:18:54;15.70;99.90
12152;DHT22;6139;51.274;7.128;2023-07-31T04:19:56;15.70;99.90
12152;DHT22;6139;51.274;7.128;2023-07-31T04:20:57;15.80;99.90
12152;DHT22;6139;51.274;7.128;2023-07-31T04:21:59;15.70;99.90
12152;DHT22;6139;51.274;7.128;2023-07-31T04:23:01;15.80;99.90
12152;DHT22;6139;51.274;7.128;2023-07-31T04:24:03;15.80;99.90
12152;DHT22;6139;51.274;7.128;2023-07-31T04:25:05;15.70;99.90
12152;DHT22;6139;51.274;7.128;2023-07-31T04:26:07;15.70;99.90
12152;DHT22;6139;51.274;7.128;2023-07-31T04:27:08;15.70;99.90
12152;DHT22;6139;51.274;7.128;2023-07-31T04:28:10;15.70;99.90
12152;DHT22;6139;51.274;7.128;2023-07-31T04:29:11;15.70;99.90
12152;DHT22;6139;51.274;7.128;2023-07-31T04:30:13;15.70;99.90
12152;DHT22;6139;51.274;7.128;2023-07-31T04:31:15;15.70;99.90
12152;DHT22;6139;51.274;7.128;2023-07-31T04:32:17;15.70;99.90
12152;DHT22;6139;51.274;7.128;2023-07-31T04:33:18;15.70;99.90
12152;DHT22;6139;51.274;7.128;2023-07-31T04:34:20;15.80;99.90
12152;DHT22;6139;51.274;7.128;2023-07-31T04:35:22;15.70;99.90
12152;DHT22;6139;51.274;7.128;2023-07-31T04:36:23;15.70;99.90
12152;DHT22;6139;51.274;7.128;2023-07-31T04:37:24;15.70;99.90
12152;DHT22;6139;51.274;7.128;2023-07-31T04:38:25;15.70;99.90
12152;DHT22;6139;51.274;7.128;2023-07-31T04:39:26;15.70;99.90
12152;DHT22;6139;51.274;7.128;2023-07-31T04:40:28;15.70;99.90
12152;DHT22;6139;51.274;7.128;2023-07-31T04:41:29;15.70;99.90
12152;DHT22;6139;51.274;7.128;2023-07-31T04:42:31;15.80;99.90
12152;DHT22;6139;51.274;7.128;2023-07-31T04:43:32;15.70;99.90
12152;DHT22;6139;51.274;7.128;2023-07-31T04:44:35;15.80;99.90
12152;DHT22;6139;51.274;7.128;2023-07-31T04:45:36;15.80;99.90
12152;DHT22;6139;51.274;7.128;2023-07-31T04:46:39;15.80;99.90
12152;DHT22;6139;51.274;7.128;2023-07-31T04:47:40;15.80;99.90
12152;DHT22;6139;51.274;7.128;2023-07-31T04:48:43;15.80;99.90
12152;DHT22;6139;51.274;7.128;2023-07-31T04:49:44;15.80;99.90
12152;DHT22;6139;51.274;7.128;2023-07-31T04:50:45;15.70;99.90
12152;DHT22;6139;51.274;7.128;2023-07-31T04:51:47;15.70;99.90
12152;DHT22;6139;51.274;7.128;2023-07-31T04:52:48;15.70;99.90
12152;DHT22;6139;51.274;7.128;2023-07-31T04:53:49;15.80;99.90
12152;DHT22;6139;51.274;7.128;2023-07-31T04:54:51;15.80;99.90
12152;DHT22;6139;51.274;7.128;2023-07-31T04:55:52;15.80;99.90
12152;DHT22;6139;51.274;7.128;2023-07-31T04:56:53;15.80;99.90
12152;DHT22;6139;51.274;7.128;2023-07-31T04:57:54;15.70;99.90
12152;DHT22;6139;51.274;7.128;2023-07-31T04:58:56;15.80;99.90
12152;DHT22;6139;51.274;7.128;2023-07-31T04:59:57;15.80;99.90
12152;DHT22;6139;51.274;7.128;2023-07-31T05:00:59;15.80;99.90
12152;DHT22;6139;51.274;7.128;2023-07-31T05:02:02;15.80;99.90
12152;DHT22;6139;51.274;7.128;2023-07-31T05:03:04;15.80;99.90
12152;DHT22;6139;51.274;7.128;2023-07-31T05:04:05;15.80;99.90
12152;DHT22;6139;51.274;7.128;2023-07-31T05:05:08;15.80;99.90
12152;DHT22;6139;51.274;7.128;2023-07-31T05:06:09;15.80;99.90
12152;DHT22;6139;51.274;7.128;2023-07-31T05:07:10;15.80;99.90
12152;DHT22;6139;51.274;7.128;2023-07-31T05:08:11;15.80;99.90
12152;DHT22;6139;51.274;7.128;2023-07-31T05:09:13;15.80;99.90
12152;DHT22;6139;51.274;7.128;2023-07-31T05:10:14;15.80;99.90
12152;DHT22;6139;51.274;7.128;2023-07-31T05:11:16;15.80;99.90
12152;DHT22;6139;51.274;7.128;2023-07-31T05:12:17;15.90;99.90
12152;DHT22;6139;51.274;7.128;2023-07-31T05:13:19;15.90;99.90
12152;DHT22;6139;51.274;7.128;2023-07-31T05:14:20;15.80;99.90
12152;DHT22;6139;51.274;7.128;2023-07-31T05:15:22;15.80;99.90
12152;DHT22;6139;51.274;7.128;2023-07-31T05:16:23;15.80;99.90
12152;DHT22;6139;51.274;7.128;2023-07-31T05:17:27;15.80;99.90
12152;DHT22;6139;51.274;7.128;2023-07-31T05:18:27;15.90;99.90
12152;DHT22;6139;51.274;7.128;2023-07-31T05:19:30;15.90;99.90
12152;DHT22;6139;51.274;7.128;2023-07-31T05:20:31;15.90;99.90
12152;DHT22;6139;51.274;7.128;2023-07-31T05:21:33;16.00;99.90
12152;DHT22;6139;51.274;7.128;2023-07-31T05:22:34;16.00;99.90
12152;DHT22;6139;51.274;7.128;2023-07-31T05:23:36;16.00;99.90
12152;DHT22;6139;51.274;7.128;2023-07-31T05:24:37;16.00;99.90
12152;DHT22;6139;51.274;7.128;2023-07-31T05:25:39;16.00;99.90
12152;DHT22;6139;51.274;7.128;2023-07-31T05:26:40;16.00;99.90
12152;DHT22;6139;51.274;7.128;2023-07-31T05:27:41;16.00;99.90
12152;DHT22;6139;51.274;7.128;2023-07-31T05:28:42;16.00;99.90
12152;DHT22;6139;51.274;7.128;2023-07-31T05:29:44;16.00;99.90
12152;DHT22;6139;51.274;7.128;2023-07-31T05:30:45;16.00;99.90
12152;DHT22;6139;51.274;7.128;2023-07-31T05:31:47;16.10;99.90
12152;DHT22;6139;51.274;7.128;2023-07-31T05:32:50;16.10;99.90
12152;DHT22;6139;51.274;7.128;2023-07-31T05:33:52;16.00;99.90
12152;DHT22;6139;51.274;7.128;2023-07-31T05:34:53;16.10;99.90
12152;DHT22;6139;51.274;7.128;2023-07-31T05:35:55;16.10;99.90
12152;DHT22;6139;51.274;7.128;2023-07-31T05:36:56;16.10;99.90
12152;DHT22;6139;51.274;7.128;2023-07-31T05:37:58;16.10;99.90
12152;DHT22;6139;51.274;7.128;2023-07-31T05:38:59;16.10;99.90
12152;DHT22;6139;51.274;7.128;2023-07-31T05:40:01;16.10;99.90
12152;DHT22;6139;51.274;7.128;2023-07-31T05:41:02;16.10;99.90
12152;DHT22;6139;51.274;7.128;2023-07-31T05:42:05;16.00;99.90
12152;DHT22;6139;51.274;7.128;2023-07-31T05:43:06;16.10;99.90
12152;DHT22;6139;51.274;7.128;2023-07-31T05:44:08;16.10;99.90
12152;DHT22;6139;51.274;7.128;2023-07-31T05:45:10;16.10;99.90
12152;DHT22;6139;51.274;7.128;2023-07-31T05:46:12;16.00;99.90
12152;DHT22;6139;51.274;7.128;2023-07-31T05:47:13;16.00;99.90
12152;DHT22;6139;51.274;7.128;2023-07-31T05:48:16;16.00;99.90
12152;DHT22;6139;51.274;7.128;2023-07-31T05:49:17;16.10;99.90
12152;DHT22;6139;51.274;7.128;2023-07-31T05:50:18;16.00;99.90
12152;DHT22;6139;51.274;7.128;2023-07-31T05:51:20;16.10;99.90
12152;DHT22;6139;51.274;7.128;2023-07-31T05:52:21;16.10;99.90
12152;DHT22;6139;51.274;7.128;2023-07-31T05:53:23;16.10;99.90
12152;DHT22;6139;51.274;7.128;2023-07-31T05:54:24;16.10;99.90
12152;DHT22;6139;51.274;7.128;2023-07-31T05:55:26;16.10;99.90
12152;DHT22;6139;51.274;7.128;2023-07-31T05:56:27;16.10;99.90
12152;DHT22;6139;51.274;7.128;2023-07-31T05:57:29;16.10;99.90
12152;DHT22;6139;51.274;7.128;2023-07-31T05:58:30;16.10;99.90
12152;DHT22;6139;51.274;7.128;2023-07-31T05:59:32;16.10;99.90
12152;DHT22;6139;51.274;7.128;2023-07-31T06:00:33;16.20;99.90
12152;DHT22;6139;51.274;7.128;2023-07-31T06:01:36;16.20;99.90
12152;DHT22;6139;51.274;7.128;2023-07-31T06:02:37;16.10;99.90
12152;DHT22;6139;51.274;7.128;2023-07-31T06:03:39;16.10;99.90
12152;DHT22;6139;51.274;7.128;2023-07-31T06:04:41;16.20;99.90
12152;DHT22;6139;51.274;7.128;2023-07-31T06:05:42;16.10;99.90
12152;DHT22;6139;51.274;7.128;2023-07-31T06:06:44;16.10;99.90
12152;DHT22;6139;51.274;7.128;2023-07-31T06:07:45;16.20;99.90
12152;DHT22;6139;51.274;7.128;2023-07-31T06:08:47;16.10;99.90
12152;DHT22;6139;51.274;7.128;2023-07-31T06:09:48;16.10;99.90
12152;DHT22;6139;51.274;7.128;2023-07-31T06:10:50;16.20;99.90
12152;DHT22;6139;51.274;7.128;2023-07-31T06:11:51;16.20;99.90
12152;DHT22;6139;51.274;7.128;2023-07-31T06:12:53;16.20;99.90
12152;DHT22;6139;51.274;7.128;2023-07-31T06:13:54;16.20;99.90
12152;DHT22;6139;51.274;7.128;2023-07-31T06:14:56;16.20;99.90
12152;DHT22;6139;51.274;7.128;2023-07-31T06:15:57;16.20;99.90
12152;DHT22;6139;51.274;7.128;2023-07-31T06:17:00;16.20;99.90
12152;DHT22;6139;51.274;7.128;2023-07-31T06:18:01;16.20;99.90
12152;DHT22;6139;51.274;7.128;2023-07-31T06:19:05;16.20;99.90
12152;DHT22;6139;51.274;7.128;2023-07-31T06:20:07;16.20;99.90
12152;DHT22;6139;51.274;7.128;2023-07-31T06:21:10;16.20;99.90
12152;DHT22;6139;51.274;7.128;2023-07-31T06:22:11;16.20;99.90
12152;DHT22;6139;51.274;7.128;2023-07-31T06:23:13;16.10;99.90
12152;DHT22;6139;51.274;7.128;2023-07-31T06:24:14;16.20;99.90
12152;DHT22;6139;51.274;7.128;2023-07-31T06:25:19;16.20;99.90
12152;DHT22;6139;51.274;7.128;2023-07-31T06:26:21;16.20;99.90
12152;DHT22;6139;51.274;7.128;2023-07-31T06:27:22;16.20;99.90
12152;DHT22;6139;51.274;7.128;2023-07-31T06:28:27;16.20;99.90
12152;DHT22;6139;51.274;7.128;2023-07-31T06:29:29;16.20;99.90
12152;DHT22;6139;51.274;7.128;2023-07-31T06:30:30;16.20;99.90
12152;DHT22;6139;51.274;7.128;2023-07-31T06:31:32;16.10;99.90
12152;DHT22;6139;51.274;7.128;2023-07-31T06:32:33;16.10;99.90
12152;DHT22;6139;51.274;7.128;2023-07-31T06:33:36;16.10;99.90
12152;DHT22;6139;51.274;7.128;2023-07-31T06:34:39;16.10;99.90
12152;DHT22;6139;51.274;7.128;2023-07-31T06:35:41;16.10;99.90
12152;DHT22;6139;51.274;7.128;2023-07-31T06:36:41;16.10;99.90
12152;DHT22;6139;51.274;7.128;2023-07-31T06:37:43;16.10;99.90
12152;DHT22;6139;51.274;7.128;2023-07-31T06:38:45;16.10;99.90
12152;DHT22;6139;51.274;7.128;2023-07-31T06:39:46;16.10;99.90